sensor_id;sensor_type;location;lat;lon;timestamp;pressure;altitude;pressure_sealevel;temperature;humidity
74218;BME280;62579;47.288;18.646;2024-03-22T00:01:52;100175.19;;;9.60;81.03
74218;BME280;62579;47.288;18.646;2024-03-22T00:04:18;100181.06;;;9.58;80.74
74218;BME280;62579;47.288;18.646;2024-03-22T00:06:45;100176.09;;;9.51;80.15
74218;BME280;62579;47.288;18.646;2024-03-22T00:09:11;100178.84;;;9.57;81.06
74218;BME280;62579;47.288;18.646;2024-03-22T00:11:37;100178.06;;;9.51;81.98
74218;BME280;62579;47.288;18.646;2024-03-22T00:14:03;100170.47;;;9.60;81.49
74218;BME280;62579;47.288;18.646;2024-03-22T00:16:28;100168.28;;;9.64;80.26
74218;BME280;62579;47.288;18.646;2024-03-22T00:18:54;100166.37;;;9.71;80.04
74218;BME280;62579;47.288;18.646;2024-03-22T00:21:19;100154.25;;;9.72;80.02
74218;BME280;62579;47.288;18.646;2024-03-22T00:23:45;100162.94;;;9.76;79.87
74218;BME280;62579;47.288;18.646;2024-03-22T00:26:10;100161.44;;;9.75;80.07
74218;BME280;62579;47.288;18.646;2024-03-22T00:28:36;100166.41;;;9.76;81.30
74218;BME280;62579;47.288;18.646;2024-03-22T00:31:01;100161.28;;;9.84;80.84
74218;BME280;62579;47.288;18.646;2024-03-22T00:33:26;100161.56;;;9.91;81.16
74218;BME280;62579;47.288;18.646;2024-03-22T00:35:53;100165.34;;;9.99;81.31
74218;BME280;62579;47.288;18.646;2024-03-22T00:38:18;100160.81;;;10.22;80.30
74218;BME280;62579;47.288;18.646;2024-03-22T00:40:43;100147.78;;;10.32;80.34
74218;BME280;62579;47.288;18.646;2024-03-22T00:43:09;100155.03;;;10.46;79.58
74218;BME280;62579;47.288;18.646;2024-03-22T00:45:34;100152.34;;;10.62;77.84
74218;BME280;62579;47.288;18.646;2024-03-22T00:48:00;100155.41;;;10.75;76.07
74218;BME280;62579;47.288;18.646;2024-03-22T00:50:25;100148.25;;;10.95;75.08
74218;BME280;62579;47.288;18.646;2024-03-22T00:52:51;100145.84;;;11.02;74.85
74218;BME280;62579;47.288;18.646;2024-03-22T00:55:18;100148.56;;;11.08;74.75
74218;BME280;62579;47.288;18.646;2024-03-22T00:57:43;100146.34;;;11.17;74.33
74218;BME280;62579;47.288;18.646;2024-03-22T01:00:09;100152.31;;;11.21;74.31
74218;BME280;62579;47.288;18.646;2024-03-22T01:02:35;100143.13;;;11.24;74.26
74218;BME280;62579;47.288;18.646;2024-03-22T01:05:00;100144.63;;;11.25;74.36
74218;BME280;62579;47.288;18.646;2024-03-22T01:07:25;100141.19;;;11.41;73.97
74218;BME280;62579;47.288;18.646;2024-03-22T01:09:50;100145.63;;;11.39;74.07
74218;BME280;62579;47.288;18.646;2024-03-22T01:12:16;100147.38;;;11.42;74.53
74218;BME280;62579;47.288;18.646;2024-03-22T01:14:41;100140.44;;;11.35;75.49
74218;BME280;62579;47.288;18.646;2024-03-22T01:17:06;100139.19;;;11.42;75.96
74218;BME280;62579;47.288;18.646;2024-03-22T01:19:33;100139.94;;;11.37;76.85
74218;BME280;62579;47.288;18.646;2024-03-22T01:21:58;100146.38;;;11.39;77.47
74218;BME280;62579;47.288;18.646;2024-03-22T01:24:24;100154.06;;;11.35;78.05
74218;BME280;62579;47.288;18.646;2024-03-22T01:26:49;100148.34;;;11.28;78.18
74218;BME280;62579;47.288;18.646;2024-03-22T01:29:14;100144.88;;;11.27;78.45
74218;BME280;62579;47.288;18.646;2024-03-22T01:31:39;100146.84;;;11.27;78.75
74218;BME280;62579;47.288;18.646;2024-03-22T01:34:05;100151.31;;;11.30;78.75
74218;BME280;62579;47.288;18.646;2024-03-22T01:36:30;100149.31;;;11.25;79.10
74218;BME280;62579;47.288;18.646;2024-03-22T01:38:56;100143.13;;;11.30;79.04
74218;BME280;62579;47.288;18.646;2024-03-22T01:41:21;100139.69;;;11.29;79.63
74218;BME280;62579;47.288;18.646;2024-03-22T01:43:46;100145.34;;;11.15;80.77
74218;BME280;62579;47.288;18.646;2024-03-22T01:46:11;100142.66;;;11.20;81.42
74218;BME280;62579;47.288;18.646;2024-03-22T01:48:37;100148.84;;;11.32;81.26
74218;BME280;62579;47.288;18.646;2024-03-22T01:51:03;100146.13;;;11.32;81.83
74218;BME280;62579;47.288;18.646;2024-03-22T01:53:29;100135.22;;;11.26;82.57
74218;BME280;62579;47.288;18.646;2024-03-22T01:55:55;100139.69;;;11.18;83.59
74218;BME280;62579;47.288;18.646;2024-03-22T01:58:20;100138.19;;;11.28;83.30
74218;BME280;62579;47.288;18.646;2024-03-22T02:00:47;100136.94;;;11.35;83.60
74218;BME280;62579;47.288;18.646;2024-03-22T02:03:12;100136.69;;;11.22;84.92
74218;BME280;62579;47.288;18.646;2024-03-22T02:05:37;100136.69;;;11.16;85.99
74218;BME280;62579;47.288;18.646;2024-03-22T02:08:03;100137.66;;;11.19;86.52
74218;BME280;62579;47.288;18.646;2024-03-22T02:10:28;100137.19;;;11.15;87.42
74218;BME280;62579;47.288;18.646;2024-03-22T02:12:54;100138.69;;;11.21;87.63
74218;BME280;62579;47.288;18.646;2024-03-22T02:15:19;100136.72;;;11.38;87.05
74218;BME280;62579;47.288;18.646;2024-03-22T02:17:44;100129.50;;;11.19;88.51
74218;BME280;62579;47.288;18.646;2024-03-22T02:20:10;100124.34;;;11.26;88.57
74218;BME280;62579;47.288;18.646;2024-03-22T02:22:37;100134.47;;;11.26;89.13
74218;BME280;62579;47.288;18.646;2024-03-22T02:25:03;100123.59;;;11.26;89.78
74218;BME280;62579;47.288;18.646;2024-03-22T02:27:28;100129.50;;;11.24;90.37
74218;BME280;62579;47.288;18.646;2024-03-22T02:29:54;100132.75;;;11.39;89.81
74218;BME280;62579;47.288;18.646;2024-03-22T02:32:19;100133.75;;;11.31;90.63
74218;BME280;62579;47.288;18.646;2024-03-22T02:34:44;100130.25;;;11.30;90.98
74218;BME280;62579;47.288;18.646;2024-03-22T02:37:10;100136.22;;;11.23;91.69
74218;BME280;62579;47.288;18.646;2024-03-22T02:39:35;100133.97;;;11.22;92.05
74218;BME280;62579;47.288;18.646;2024-03-22T02:42:00;100142.13;;;11.11;93.07
74218;BME280;62579;47.288;18.646;2024-03-22T02:44:26;100144.09;;;11.05;93.99
74218;BME280;62579;47.288;18.646;2024-03-22T02:46:51;100145.31;;;11.04;94.56
74218;BME280;62579;47.288;18.646;2024-03-22T02:49:16;100141.87;;;11.14;94.18
74218;BME280;62579;47.288;18.646;2024-03-22T02:51:41;100142.37;;;11.07;94.90
74218;BME280;62579;47.288;18.646;2024-03-22T02:54:07;100149.56;;;11.05;95.32
74218;BME280;62579;47.288;18.646;2024-03-22T02:56:32;100145.31;;;10.98;96.39
74218;BME280;62579;47.288;18.646;2024-03-22T02:58:57;100137.62;;;10.91;97.16
74218;BME280;62579;47.288;18.646;2024-03-22T03:01:23;100129.97;;;11.06;96.70
74218;BME280;62579;47.288;18.646;2024-03-22T03:03:48;100128.00;;;11.07;96.99
74218;BME280;62579;47.288;18.646;2024-03-22T03:06:13;100128.22;;;10.98;97.92
74218;BME280;62579;47.288;18.646;2024-03-22T03:08:40;100134.16;;;10.91;99.20
74218;BME280;62579;47.288;18.646;2024-03-22T03:11:05;100134.41;;;10.98;99.15
74218;BME280;62579;47.288;18.646;2024-03-22T03:13:30;100131.72;;;11.04;99.39
74218;BME280;62579;47.288;18.646;2024-03-22T03:15:57;100135.91;;;10.94;100.00
74218;BME280;62579;47.288;18.646;2024-03-22T03:18:22;100132.44;;;10.93;100.00
74218;BME280;62579;47.288;18.646;2024-03-22T03:20:47;100130.47;;;10.94;100.00
74218;BME280;62579;47.288;18.646;2024-03-22T03:23:13;100127.00;;;11.04;100.00
74218;BME280;62579;47.288;18.646;2024-03-22T03:25:38;100129.50;;;11.02;100.00
74218;BME280;62579;47.288;18.646;2024-03-22T03:28:03;100127.25;;;11.01;100.00
74218;BME280;62579;47.288;18.646;2024-03-22T03:30:29;100135.66;;;11.03;100.00
74218;BME280;62579;47.288;18.646;2024-03-22T03:32:54;100127.50;;;11.03;100.00
74218;BME280;62579;47.288;18.646;2024-03-22T03:35:19;100131.47;;;11.02;100.00
74218;BME280;62579;47.288;18.646;2024-03-22T03:37:45;100120.34;;;11.05;100.00
74218;BME280;62579;47.288;18.646;2024-03-22T03:40:10;100127.03;;;11.10;100.00
74218;BME280;62579;47.288;18.646;2024-03-22T03:42:36;100129.50;;;11.02;100.00
74218;BME280;62579;47.288;18.646;2024-03-22T03:45:01;100131.22;;;11.00;100.00
74218;BME280;62579;47.288;18.646;2024-03-22T03:47:26;100140.12;;;11.00;100.00
74218;BME280;62579;47.288;18.646;2024-03-22T03:49:52;100138.38;;;10.92;100.00
74218;BME280;62579;47.288;18.646;2024-03-22T03:52:17;100142.31;;;10.85;100.00
74218;BME280;62579;47.288;18.646;2024-03-22T03:54:43;100134.12;;;10.79;100.00
74218;BME280;62579;47.288;18.646;2024-03-22T03:57:08;100129.69;;;10.88;100.00
74218;BME280;62579;47.288;18.646;2024-03-22T03:59:33;100127.69;;;10.82;100.00
74218;BME280;62579;47.288;18.646;2024-03-22T04:01:59;100139.59;;;10.85;100.00
74218;BME280;62579;47.288;18.646;2024-03-22T04:04:24;100136.66;;;11.00;100.00
74218;BME280;62579;47.288;18.646;2024-03-22T04:06:49;100126.75;;;10.97;100.00
74218;BME280;62579;47.288;18.646;2024-03-22T04:09:14;100130.44;;;10.88;100.00
74218;BME280;62579;47.288;18.646;2024-03-22T04:11:40;100140.34;;;10.91;100.00
74218;BME280;62579;47.288;18.646;2024-03-22T04:14:05;100141.41;;;11.10;100.00
74218;BME280;62579;47.288;18.646;2024-03-22T04:16:32;100145.03;;;10.91;100.00
74218;BME280;62579;47.288;18.646;2024-03-22T04:18:57;100139.38;;;10.94;100.00
74218;BME280;62579;47.288;18.646;2024-03-22T04:21:23;100148.03;;;10.93;100.00
74218;BME280;62579;47.288;18.646;2024-03-22T04:23:48;100143.50;;;10.78;100.00
74218;BME280;62579;47.288;18.646;2024-03-22T04:26:14;100149.22;;;10.75;100.00
74218;BME280;62579;47.288;18.646;2024-03-22T04:28:40;100148.47;;;10.80;100.00
74218;BME280;62579;47.288;18.646;2024-03-22T04:31:07;100151.94;;;10.80;100.00
74218;BME280;62579;47.288;18.646;2024-03-22T04:33:34;100153.94;;;10.80;100.00
74218;BME280;62579;47.288;18.646;2024-03-22T04:36:00;100169.00;;;10.75;100.00
74218;BME280;62579;47.288;18.646;2024-03-22T04:38:27;100167.72;;;10.65;100.00
74218;BME280;62579;47.288;18.646;2024-03-22T04:40:52;100164.53;;;10.72;100.00
74218;BME280;62579;47.288;18.646;2024-03-22T04:43:19;100167.50;;;10.69;100.00
74218;BME280;62579;47.288;18.646;2024-03-22T04:45:45;100167.69;;;10.60;100.00
74218;BME280;62579;47.288;18.646;2024-03-22T04:48:13;100171.16;;;10.60;100.00
74218;BME280;62579;47.288;18.646;2024-03-22T04:50:39;100165.00;;;10.65;100.00
74218;BME280;62579;47.288;18.646;2024-03-22T04:53:04;100164.97;;;10.60;100.00
74218;BME280;62579;47.288;18.646;2024-03-22T04:55:30;100165.44;;;10.53;100.00
74218;BME280;62579;47.288;18.646;2024-03-22T04:57:55;100159.78;;;10.56;100.00
74218;BME280;62579;47.288;18.646;2024-03-22T05:00:21;100162.22;;;10.54;100.00
74218;BME280;62579;47.288;18.646;2024-03-22T05:02:46;100164.94;;;10.54;100.00
74218;BME280;62579;47.288;18.646;2024-03-22T05:05:12;100162.50;;;10.56;100.00
74218;BME280;62579;47.288;18.646;2024-03-22T05:07:37;100168.69;;;10.62;100.00
74218;BME280;62579;47.288;18.646;2024-03-22T05:10:03;100169.16;;;10.55;100.00
74218;BME280;62579;47.288;18.646;2024-03-22T05:12:29;100164.44;;;10.50;100.00
74218;BME280;62579;47.288;18.646;2024-03-22T05:14:54;100161.28;;;10.68;100.00
74218;BME280;62579;47.288;18.646;2024-03-22T05:17:20;100157.78;;;10.62;100.00
74218;BME280;62579;47.288;18.646;2024-03-22T05:19:45;100155.37;;;10.70;100.00
74218;BME280;62579;47.288;18.646;2024-03-22T05:22:10;100155.59;;;10.66;100.00
74218;BME280;62579;47.288;18.646;2024-03-22T05:24:36;100154.84;;;10.66;100.00
74218;BME280;62579;47.288;18.646;2024-03-22T05:27:01;100152.34;;;10.57;100.00
74218;BME280;62579;47.288;18.646;2024-03-22T05:29:26;100155.13;;;10.73;100.00
74218;BME280;62579;47.288;18.646;2024-03-22T05:31:52;100152.87;;;10.66;100.00
74218;BME280;62579;47.288;18.646;2024-03-22T05:34:18;100161.81;;;10.72;100.00
74218;BME280;62579;47.288;18.646;2024-03-22T05:36:44;100158.81;;;10.70;100.00
74218;BME280;62579;47.288;18.646;2024-03-22T05:39:10;100159.53;;;10.65;100.00
74218;BME280;62579;47.288;18.646;2024-03-22T05:41:38;100167.00;;;10.65;100.00
74218;BME280;62579;47.288;18.646;2024-03-22T05:44:04;100165.28;;;10.73;100.00
74218;BME280;62579;47.288;18.646;2024-03-22T05:46:30;100165.53;;;10.69;100.00
74218;BME280;62579;47.288;18.646;2024-03-22T05:48:56;100160.56;;;10.73;100.00
74218;BME280;62579;47.288;18.646;2024-03-22T05:51:22;100159.37;;;10.80;100.00
74218;BME280;62579;47.288;18.646;2024-03-22T05:53:47;100156.41;;;10.83;100.00
74218;BME280;62579;47.288;18.646;2024-03-22T05:56:13;100158.13;;;10.86;100.00
74218;BME280;62579;47.288;18.646;2024-03-22T05:58:40;100158.91;;;10.93;100.00
74218;BME280;62579;47.288;18.646;2024-03-22T06:01:05;100157.16;;;10.90;100.00
74218;BME280;62579;47.288;18.646;2024-03-22T06:03:31;100146.31;;;11.01;100.00
74218;BME280;62579;47.288;18.646;2024-03-22T06:05:58;100154.50;;;11.06;100.00
74218;BME280;62579;47.288;18.646;2024-03-22T06:08:25;100147.81;;;11.02;100.00
74218;BME280;62579;47.288;18.646;2024-03-22T06:10:52;100142.13;;;11.16;100.00
74218;BME280;62579;47.288;18.646;2024-03-22T06:13:18;100135.47;;;11.23;100.00
74218;BME280;62579;47.288;18.646;2024-03-22T06:15:43;100146.59;;;11.19;100.00
74218;BME280;62579;47.288;18.646;2024-03-22T06:18:12;100135.22;;;11.21;100.00
74218;BME280;62579;47.288;18.646;2024-03-22T06:20:37;100147.12;;;11.40;100.00
74218;BME280;62579;47.288;18.646;2024-03-22T06:23:03;100150.09;;;11.48;100.00
74218;BME280;62579;47.288;18.646;2024-03-22T06:25:28;100149.59;;;11.32;100.00
74218;BME280;62579;47.288;18.646;2024-03-22T06:27:54;100146.38;;;11.34;100.00
74218;BME280;62579;47.288;18.646;2024-03-22T06:30:20;100144.66;;;11.42;100.00
74218;BME280;62579;47.288;18.646;2024-03-22T06:32:45;100150.88;;;11.54;100.00
74218;BME280;62579;47.288;18.646;2024-03-22T06:35:10;100144.66;;;11.53;100.00
74218;BME280;62579;47.288;18.646;2024-03-22T06:37:39;100153.81;;;11.50;100.00
74218;BME280;62579;47.288;18.646;2024-03-22T06:40:09;100152.09;;;11.53;100.00
74218;BME280;62579;47.288;18.646;2024-03-22T06:42:35;100155.81;;;11.61;100.00
74218;BME280;62579;47.288;18.646;2024-03-22T06:45:00;100150.84;;;11.65;100.00
74218;BME280;62579;47.288;18.646;2024-03-22T06:47:25;100154.31;;;11.65;100.00
74218;BME280;62579;47.288;18.646;2024-03-22T06:49:50;100147.41;;;11.81;100.00
74218;BME280;62579;47.288;18.646;2024-03-22T06:52:16;100160.28;;;11.91;100.00
74218;BME280;62579;47.288;18.646;2024-03-22T06:54:43;100152.84;;;11.97;100.00
74218;BME280;62579;47.288;18.646;2024-03-22T06:57:08;100157.53;;;12.08;98.52
74218;BME280;62579;47.288;18.646;2024-03-22T06:59:34;100154.06;;;12.07;99.50
74218;BME280;62579;47.288;18.646;2024-03-22T07:01:59;100159.25;;;12.17;98.83
74218;BME280;62579;47.288;18.646;2024-03-22T07:04:24;100165.16;;;12.32;97.68
74218;BME280;62579;47.288;18.646;2024-03-22T07:06:50;100162.94;;;12.30;97.36
74218;BME280;62579;47.288;18.646;2024-03-22T07:09:15;100161.72;;;12.26;98.18
74218;BME280;62579;47.288;18.646;2024-03-22T07:11:40;100163.72;;;12.25;97.26
74218;BME280;62579;47.288;18.646;2024-03-22T07:14:06;100164.94;;;12.35;97.32
74218;BME280;62579;47.288;18.646;2024-03-22T07:16:31;100161.69;;;12.42;98.00
74218;BME280;62579;47.288;18.646;2024-03-22T07:18:56;100157.72;;;12.43;97.02
74218;BME280;62579;47.288;18.646;2024-03-22T07:21:22;100152.97;;;12.55;96.27
74218;BME280;62579;47.288;18.646;2024-03-22T07:23:47;100154.19;;;12.59;95.56
74218;BME280;62579;47.288;18.646;2024-03-22T07:26:12;100163.13;;;12.54;95.77
74218;BME280;62579;47.288;18.646;2024-03-22T07:28:38;100164.88;;;12.57;95.27
74218;BME280;62579;47.288;18.646;2024-03-22T07:31:04;100173.00;;;12.69;94.60
74218;BME280;62579;47.288;18.646;2024-03-22T07:33:31;100171.00;;;12.75;93.97
74218;BME280;62579;47.288;18.646;2024-03-22T07:35:56;100169.53;;;12.74;92.47
74218;BME280;62579;47.288;18.646;2024-03-22T07:38:26;100174.00;;;12.71;92.05
74218;BME280;62579;47.288;18.646;2024-03-22T07:40:51;100172.28;;;12.68;92.48
74218;BME280;62579;47.288;18.646;2024-03-22T07:43:16;100179.97;;;12.64;91.11
74218;BME280;62579;47.288;18.646;2024-03-22T07:45:42;100177.31;;;12.53;90.93
74218;BME280;62579;47.288;18.646;2024-03-22T07:48:07;100172.81;;;12.55;91.24
74218;BME280;62579;47.288;18.646;2024-03-22T07:50:32;100181.78;;;12.45;91.99
74218;BME280;62579;47.288;18.646;2024-03-22T07:52:58;100178.78;;;12.48;92.53
74218;BME280;62579;47.288;18.646;2024-03-22T07:55:23;100177.31;;;12.53;92.88
74218;BME280;62579;47.288;18.646;2024-03-22T07:57:48;100186.94;;;12.59;92.46
74218;BME280;62579;47.288;18.646;2024-03-22T08:00:14;100193.94;;;12.49;92.47
74218;BME280;62579;47.288;18.646;2024-03-22T08:02:41;100178.75;;;12.54;92.01
74218;BME280;62579;47.288;18.646;2024-03-22T08:05:07;100184.97;;;12.60;92.72
74218;BME280;62579;47.288;18.646;2024-03-22T08:07:32;100190.16;;;12.63;92.16
74218;BME280;62579;47.288;18.646;2024-03-22T08:09:58;100188.38;;;12.77;92.78
74218;BME280;62579;47.288;18.646;2024-03-22T08:12:24;100194.56;;;12.78;92.37
74218;BME280;62579;47.288;18.646;2024-03-22T08:14:49;100200.00;;;12.83;90.44
74218;BME280;62579;47.288;18.646;2024-03-22T08:17:15;100202.03;;;12.83;90.47
74218;BME280;62579;47.288;18.646;2024-03-22T08:19:41;100206.44;;;12.91;90.94
74218;BME280;62579;47.288;18.646;2024-03-22T08:22:06;100202.66;;;13.05;89.23
74218;BME280;62579;47.288;18.646;2024-03-22T08:24:31;100211.84;;;13.02;89.64
74218;BME280;62579;47.288;18.646;2024-03-22T08:26:56;100207.66;;;13.07;88.87
74218;BME280;62579;47.288;18.646;2024-03-22T08:29:22;100190.97;;;13.05;89.23
74218;BME280;62579;47.288;18.646;2024-03-22T08:31:47;100196.47;;;12.99;89.44
74218;BME280;62579;47.288;18.646;2024-03-22T08:34:12;100202.22;;;12.96;89.79
74218;BME280;62579;47.288;18.646;2024-03-22T08:36:38;100208.91;;;12.95;88.99
74218;BME280;62579;47.288;18.646;2024-03-22T08:39:04;100195.28;;;12.84;89.42
74218;BME280;62579;47.288;18.646;2024-03-22T08:41:30;100200.69;;;13.00;89.48
74218;BME280;62579;47.288;18.646;2024-03-22T08:43:55;100198.97;;;12.97;89.12
74218;BME280;62579;47.288;18.646;2024-03-22T08:46:22;100204.41;;;13.03;88.65
74218;BME280;62579;47.288;18.646;2024-03-22T08:48:48;100197.22;;;13.00;90.88
74218;BME280;62579;47.288;18.646;2024-03-22T08:51:13;100189.72;;;13.06;90.03
74218;BME280;62579;47.288;18.646;2024-03-22T08:53:39;100195.69;;;13.04;89.72
74218;BME280;62579;47.288;18.646;2024-03-22T08:56:04;100197.59;;;13.26;88.76
74218;BME280;62579;47.288;18.646;2024-03-22T08:58:30;100193.19;;;13.17;89.51
74218;BME280;62579;47.288;18.646;2024-03-22T09:00:55;100195.38;;;13.24;90.07
74218;BME280;62579;47.288;18.646;2024-03-22T09:03:20;100199.34;;;13.23;89.52
74218;BME280;62579;47.288;18.646;2024-03-22T09:05:46;100193.81;;;13.35;90.16
74218;BME280;62579;47.288;18.646;2024-03-22T09:08:12;100194.09;;;13.31;89.97
74218;BME280;62579;47.288;18.646;2024-03-22T09:10:37;100204.50;;;13.38;89.73
74218;BME280;62579;47.288;18.646;2024-03-22T09:13:02;100195.47;;;13.49;90.00
74218;BME280;62579;47.288;18.646;2024-03-22T09:15:28;100188.16;;;13.62;89.40
74218;BME280;62579;47.288;18.646;2024-03-22T09:17:53;100182.09;;;13.75;89.27
74218;BME280;62579;47.288;18.646;2024-03-22T09:20:18;100190.25;;;13.80;88.69
74218;BME280;62579;47.288;18.646;2024-03-22T09:22:44;100177.62;;;14.02;88.34
74218;BME280;62579;47.288;18.646;2024-03-22T09:25:09;100173.44;;;14.25;85.84
74218;BME280;62579;47.288;18.646;2024-03-22T09:27:35;100171.97;;;14.48;85.43
74218;BME280;62579;47.288;18.646;2024-03-22T09:30:00;100163.56;;;14.65;85.30
74218;BME280;62579;47.288;18.646;2024-03-22T09:32:26;100155.59;;;14.85;80.80
74218;BME280;62579;47.288;18.646;2024-03-22T09:34:52;100160.03;;;14.88;81.53
74218;BME280;62579;47.288;18.646;2024-03-22T09:37:17;100157.38;;;15.01;80.18
74218;BME280;62579;47.288;18.646;2024-03-22T09:39:43;100148.72;;;14.97;80.50
74218;BME280;62579;47.288;18.646;2024-03-22T09:42:13;100145.00;;;15.14;80.17
74218;BME280;62579;47.288;18.646;2024-03-22T09:44:44;100142.47;;;15.16;78.12
74218;BME280;62579;47.288;18.646;2024-03-22T09:47:12;100141.13;;;15.41;76.64
74218;BME280;62579;47.288;18.646;2024-03-22T09:49:39;100150.81;;;15.42;76.25
74218;BME280;62579;47.288;18.646;2024-03-22T09:52:06;100137.25;;;15.49;77.80
74218;BME280;62579;47.288;18.646;2024-03-22T09:54:31;100139.41;;;15.56;77.19
74218;BME280;62579;47.288;18.646;2024-03-22T09:56:58;100144.34;;;15.39;76.29
74218;BME280;62579;47.288;18.646;2024-03-22T09:59:24;100141.59;;;15.58;75.61
74218;BME280;62579;47.288;18.646;2024-03-22T10:01:50;100142.47;;;15.66;75.39
74218;BME280;62579;47.288;18.646;2024-03-22T10:04:17;100142.69;;;15.68;74.81
74218;BME280;62579;47.288;18.646;2024-03-22T10:06:42;100143.62;;;15.71;73.54
74218;BME280;62579;47.288;18.646;2024-03-22T10:09:07;100143.97;;;15.67;73.94
74218;BME280;62579;47.288;18.646;2024-03-22T10:11:34;100142.16;;;15.70;73.50
74218;BME280;62579;47.288;18.646;2024-03-22T10:14:00;100137.94;;;15.69;73.02
74218;BME280;62579;47.288;18.646;2024-03-22T10:16:26;100143.31;;;15.74;73.54
74218;BME280;62579;47.288;18.646;2024-03-22T10:18:51;100142.16;;;15.70;71.25
74218;BME280;62579;47.288;18.646;2024-03-22T10:21:19;100137.16;;;16.13;70.80
74218;BME280;62579;47.288;18.646;2024-03-22T10:23:46;100125.34;;;16.18;70.04
74218;BME280;62579;47.288;18.646;2024-03-22T10:26:13;100110.97;;;16.12;66.08
74218;BME280;62579;47.288;18.646;2024-03-22T10:28:46;100123.00;;;16.22;64.34
74218;BME280;62579;47.288;18.646;2024-03-22T10:31:12;100121.63;;;16.42;64.94
74218;BME280;62579;47.288;18.646;2024-03-22T10:33:38;100120.97;;;16.49;64.40
74218;BME280;62579;47.288;18.646;2024-03-22T10:36:04;100117.19;;;16.52;64.27
74218;BME280;62579;47.288;18.646;2024-03-22T10:38:30;100114.34;;;16.44;63.66
74218;BME280;62579;47.288;18.646;2024-03-22T10:40:57;100113.50;;;16.62;63.76
74218;BME280;62579;47.288;18.646;2024-03-22T10:43:22;100119.47;;;16.87;61.93
74218;BME280;62579;47.288;18.646;2024-03-22T10:45:50;100111.06;;;16.72;62.50
74218;BME280;62579;47.288;18.646;2024-03-22T10:48:17;100112.94;;;16.77;59.02
74218;BME280;62579;47.288;18.646;2024-03-22T10:50:45;100126.59;;;16.69;57.78
74218;BME280;62579;47.288;18.646;2024-03-22T10:53:23;100116.13;;;16.68;59.20
74218;BME280;62579;47.288;18.646;2024-03-22T10:55:50;100113.69;;;16.51;55.36
74218;BME280;62579;47.288;18.646;2024-03-22T10:58:21;100117.41;;;16.67;54.31
74218;BME280;62579;47.288;18.646;2024-03-22T11:00:47;100106.81;;;16.71;50.80
74218;BME280;62579;47.288;18.646;2024-03-22T11:03:12;100101.94;;;16.77;52.07
74218;BME280;62579;47.288;18.646;2024-03-22T11:05:48;100112.91;;;16.90;50.89
74218;BME280;62579;47.288;18.646;2024-03-22T11:08:24;100105.34;;;16.70;47.87
74218;BME280;62579;47.288;18.646;2024-03-22T11:10:50;100104.97;;;16.87;50.22
74218;BME280;62579;47.288;18.646;2024-03-22T11:13:16;100107.53;;;16.85;48.00
74218;BME280;62579;47.288;18.646;2024-03-22T11:15:42;100115.06;;;16.71;48.92
74218;BME280;62579;47.288;18.646;2024-03-22T11:18:07;100099.75;;;16.62;46.13
74218;BME280;62579;47.288;18.646;2024-03-22T11:20:36;100107.78;;;16.47;47.71
74218;BME280;62579;47.288;18.646;2024-03-22T11:23:03;100101.22;;;16.50;47.77
74218;BME280;62579;47.288;18.646;2024-03-22T11:25:31;100099.53;;;16.60;47.26
74218;BME280;62579;47.288;18.646;2024-03-22T11:27:57;100090.94;;;16.77;47.58
74218;BME280;62579;47.288;18.646;2024-03-22T11:30:24;100089.22;;;16.53;48.79
74218;BME280;62579;47.288;18.646;2024-03-22T11:32:50;100086.22;;;16.64;49.47
74218;BME280;62579;47.288;18.646;2024-03-22T11:35:16;100092.09;;;16.81;50.93
74218;BME280;62579;47.288;18.646;2024-03-22T11:37:42;100089.97;;;16.88;53.84
74218;BME280;62579;47.288;18.646;2024-03-22T11:40:11;100090.25;;;16.97;52.89
74218;BME280;62579;47.288;18.646;2024-03-22T11:42:41;100083.41;;;16.91;53.12
74218;BME280;62579;47.288;18.646;2024-03-22T11:45:12;100071.34;;;16.94;54.07
74218;BME280;62579;47.288;18.646;2024-03-22T11:47:38;100063.69;;;17.00;54.19
74218;BME280;62579;47.288;18.646;2024-03-22T11:50:04;100064.34;;;16.93;54.06
74218;BME280;62579;47.288;18.646;2024-03-22T11:52:30;100062.34;;;16.93;55.32
74218;BME280;62579;47.288;18.646;2024-03-22T11:54:56;100058.41;;;17.02;54.21
74218;BME280;62579;47.288;18.646;2024-03-22T11:57:22;100065.84;;;16.94;52.22
74218;BME280;62579;47.288;18.646;2024-03-22T11:59:48;100057.97;;;16.77;51.35
74218;BME280;62579;47.288;18.646;2024-03-22T12:02:14;100066.53;;;16.73;52.14
74218;BME280;62579;47.288;18.646;2024-03-22T12:04:44;100060.84;;;16.71;53.18
74218;BME280;62579;47.288;18.646;2024-03-22T12:07:13;100057.97;;;16.77;53.52
74218;BME280;62579;47.288;18.646;2024-03-22T12:09:42;100054.78;;;16.86;49.84
74218;BME280;62579;47.288;18.646;2024-03-22T12:12:10;100052.41;;;16.90;50.32
74218;BME280;62579;47.288;18.646;2024-03-22T12:14:36;100046.66;;;16.80;50.68
74218;BME280;62579;47.288;18.646;2024-03-22T12:17:02;100050.34;;;17.04;52.33
74218;BME280;62579;47.288;18.646;2024-03-22T12:19:28;100046.22;;;17.10;52.61
74218;BME280;62579;47.288;18.646;2024-03-22T12:21:54;100042.84;;;17.25;49.72
74218;BME280;62579;47.288;18.646;2024-03-22T12:24:19;100047.88;;;17.34;48.68
74218;BME280;62579;47.288;18.646;2024-03-22T12:26:44;100038.34;;;17.35;48.97
74218;BME280;62579;47.288;18.646;2024-03-22T12:29:12;100032.44;;;17.31;50.03
74218;BME280;62579;47.288;18.646;2024-03-22T12:31:38;100032.63;;;17.54;49.69